Time;durP1;ratioP1;P1;durP2;ratioP2;P2;SDS_P1;SDS_P2;PMS_P1;PMS_P2;Temp;Humidity;BMP_temperature;BMP_pressure;BME280_temperature;BME280_humidity;BME280_pressure;Samples;Min_cycle;Max_cycle;Signal;HPM_P1;HPM_P2
2021/07/20 00:02:56;;;;;;;7.90;3.92;;;;;;;19.32;96.08;97795.84;5090092;28;20063;-77
2021/07/20 00:05:25;;;;;;;9.18;3.85;;;;;;;19.39;95.49;97792.44;5085667;28;20043;-77
2021/07/20 00:07:51;;;;;;;12.88;4.38;;;;;;;19.34;95.93;97795.47;5068354;28;20031;-79
2021/07/20 00:10:31;;;;;;;11.80;4.85;;;;;;;19.24;96.04;97792.06;5069337;28;20035;-78
2021/07/20 00:12:57;;;;;;;16.35;4.30;;;;;;;19.24;95.73;97785.69;5068282;28;20028;-77
2021/07/20 00:15:23;;;;;;;8.52;4.18;;;;;;;18.97;97.61;97789.31;5069460;28;20393;-76
2021/07/20 00:17:51;;;;;;;5.88;4.05;;;;;;;19.04;97.14;97787.56;5069509;28;20111;-76
2021/07/20 00:20:19;;;;;;;7.45;4.07;;;;;;;19.07;97.49;97784.06;5075016;28;20983;-76
2021/07/20 00:22:44;;;;;;;5.53;3.67;;;;;;;18.91;97.74;97788.78;5110041;28;20061;-76
2021/07/20 00:25:11;;;;;;;4.10;3.30;;;;;;;18.85;98.70;97797.69;5108827;28;20027;-76
2021/07/20 00:27:37;;;;;;;6.90;3.92;;;;;;;18.86;98.69;97785.47;5109611;28;20036;-77
2021/07/20 00:30:04;;;;;;;4.97;3.22;;;;;;;18.80;98.58;97790.44;5109290;28;20032;-77
2021/07/20 00:32:29;;;;;;;5.70;2.95;;;;;;;18.76;98.82;97781.22;5109966;28;20042;-75
2021/07/20 00:34:55;;;;;;;8.48;4.07;;;;;;;18.66;99.63;97770.63;5109984;28;20044;-75
2021/07/20 00:37:20;;;;;;;10.00;3.92;;;;;;;18.62;99.65;97775.25;5108404;28;20123;-77
2021/07/20 00:39:45;;;;;;;9.98;3.95;;;;;;;18.58;100.00;97777.94;5110012;28;20036;-77
2021/07/20 00:42:11;;;;;;;6.22;3.53;;;;;;;18.54;100.00;97782.56;5108923;28;20023;-77
2021/07/20 00:44:36;;;;;;;9.00;4.35;;;;;;;18.49;100.00;97776.44;5108663;28;20396;-76
2021/07/20 00:47:02;;;;;;;10.88;4.80;;;;;;;18.55;100.00;97778.63;5109064;28;20066;-77
2021/07/20 00:49:27;;;;;;;7.22;4.25;;;;;;;18.86;98.46;97780.69;5110099;28;20032;-76
2021/07/20 00:51:53;;;;;;;10.52;6.30;;;;;;;18.90;98.19;97786.34;5108571;28;20081;-75
2021/07/20 00:54:19;;;;;;;8.43;3.92;;;;;;;18.83;98.80;97784.19;5110115;28;20027;-76
2021/07/20 00:56:44;;;;;;;11.63;3.95;;;;;;;18.66;100.00;97784.50;5105333;28;20771;-75
2021/07/20 00:59:13;;;;;;;9.95;3.72;;;;;;;18.58;100.00;97788.19;5102536;28;20032;-77
2021/07/20 01:01:39;;;;;;;13.65;4.05;;;;;;;18.43;100.00;97783.38;5069654;28;20532;-76
2021/07/20 01:04:04;;;;;;;8.35;4.47;;;;;;;18.45;100.00;97786.63;5070070;28;20021;-77
2021/07/20 01:06:32;;;;;;;8.88;3.85;;;;;;;18.40;100.00;97782.13;5102577;28;20055;-79
2021/07/20 01:09:02;;;;;;;11.50;3.88;;;;;;;18.45;100.00;97775.53;5077134;28;20028;-78
2021/07/20 01:11:31;;;;;;;10.10;3.53;;;;;;;18.49;100.00;97784.72;5092036;28;20092;-76
2021/07/20 01:13:57;;;;;;;11.32;3.53;;;;;;;18.39;100.00;97779.69;5089306;28;20818;-76
2021/07/20 01:16:24;;;;;;;11.85;4.68;;;;;;;18.34;100.00;97783.50;5087942;28;20066;-75
2021/07/20 01:18:50;;;;;;;7.88;3.63;;;;;;;18.26;100.00;97780.88;5089225;28;20035;-75
2021/07/20 01:21:16;;;;;;;12.35;4.20;;;;;;;18.11;100.00;97779.63;5087701;28;20755;-76
2021/07/20 01:23:45;;;;;;;12.35;5.03;;;;;;;18.11;100.00;97787.94;5089169;28;20020;-77
2021/07/20 01:26:11;;;;;;;5.00;3.50;;;;;;;18.09;100.00;97791.06;5101307;28;20039;-77
2021/07/20 01:28:38;;;;;;;9.30;3.85;;;;;;;18.28;100.00;97787.69;5108857;28;20036;-76
2021/07/20 01:31:08;;;;;;;14.93;6.80;;;;;;;18.44;100.00;97791.34;5102851;28;20519;-77
2021/07/20 01:33:38;;;;;;;13.35;4.13;;;;;;;18.37;100.00;97784.78;5087797;28;20068;-76
2021/07/20 01:36:06;;;;;;;6.97;3.72;;;;;;;18.26;100.00;97789.19;5090936;28;20048;-76
2021/07/20 01:38:32;;;;;;;5.78;3.40;;;;;;;18.40;100.00;97790.41;5091689;28;20469;-77
2021/07/20 01:41:07;;;;;;;12.75;4.40;;;;;;;18.42;100.00;97793.63;5091461;28;20035;-77
2021/07/20 01:43:40;;;;;;;7.75;4.15;;;;;;;18.38;100.00;97780.84;5092966;28;20171;-76
2021/07/20 01:46:08;;;;;;;6.72;3.60;;;;;;;18.22;100.00;97771.66;5089102;28;20035;-75
2021/07/20 01:48:36;;;;;;;8.77;4.28;;;;;;;18.14;100.00;97785.28;5092673;28;20028;-76
2021/07/20 01:51:03;;;;;;;11.73;5.25;;;;;;;18.08;100.00;97783.09;5092891;28;20080;-77
2021/07/20 01:53:29;;;;;;;7.22;4.03;;;;;;;18.31;100.00;97788.94;5092455;28;20032;-74
2021/07/20 01:55:55;;;;;;;6.63;3.20;;;;;;;18.15;100.00;97778.59;5090980;28;20098;-75
2021/07/20 01:58:21;;;;;;;8.10;4.65;;;;;;;18.04;100.00;97774.69;5092507;28;20024;-74
2021/07/20 02:00:47;;;;;;;7.15;4.80;;;;;;;17.95;100.00;97787.06;5091844;28;20429;-74
2021/07/20 02:08:53;;;;;;;6.07;3.97;;;;;;;17.73;100.00;97791.06;5070201;28;20071;-77
2021/07/20 02:11:25;;;;;;;7.38;4.50;;;;;;;17.80;100.00;97793.25;5088291;28;20008;-76
2021/07/20 02:13:56;;;;;;;9.77;4.85;;;;;;;17.68;100.00;97791.31;5090910;28;20046;-77
2021/07/20 02:16:30;;;;;;;9.18;4.47;;;;;;;17.97;100.00;97790.28;5092274;28;20485;-78
2021/07/20 02:19:08;;;;;;;5.25;3.80;;;;;;;18.02;100.00;97788.06;5090960;28;20089;-76
2021/07/20 02:21:40;;;;;;;8.43;4.82;;;;;;;17.93;100.00;97787.38;5090580;28;20063;-78
2021/07/20 02:24:05;;;;;;;16.85;5.07;;;;;;;17.99;100.00;97788.75;5090978;28;20032;-77
2021/07/20 02:26:31;;;;;;;7.22;4.28;;;;;;;17.77;100.00;97786.47;5090923;28;20008;-77
2021/07/20 02:28:58;;;;;;;6.90;4.25;;;;;;;17.71;100.00;97784.28;5092585;28;20042;-76
2021/07/20 02:31:26;;;;;;;7.97;4.30;;;;;;;17.65;100.00;97792.81;5092107;28;20024;-77
2021/07/20 02:33:52;;;;;;;7.82;3.83;;;;;;;17.69;100.00;97789.34;5090721;28;20388;-76
2021/07/20 02:36:18;;;;;;;5.60;3.53;;;;;;;17.81;100.00;97784.63;5091775;28;20096;-80
2021/07/20 02:38:44;;;;;;;9.15;3.67;;;;;;;17.90;100.00;97781.72;5090819;28;20024;-77
2021/07/20 02:41:12;;;;;;;8.00;4.72;;;;;;;17.75;100.00;97788.78;5091843;28;20031;-77
2021/07/20 02:43:43;;;;;;;11.25;5.38;;;;;;;17.74;100.00;97789.94;5091934;28;20091;-78
2021/07/20 02:46:11;;;;;;;12.50;4.53;;;;;;;17.77;100.00;97783.69;5088645;28;20035;-78
2021/07/20 02:48:38;;;;;;;12.30;5.00;;;;;;;17.90;100.00;97782.56;5090351;28;20024;-80
2021/07/20 02:51:04;;;;;;;9.32;4.97;;;;;;;17.76;100.00;97787.63;5090521;28;20032;-80
2021/07/20 02:53:31;;;;;;;8.80;5.25;;;;;;;17.65;100.00;97786.47;5091468;28;20070;-78
2021/07/20 02:55:58;;;;;;;11.85;4.10;;;;;;;17.52;100.00;97776.53;5091141;28;20481;-77
2021/07/20 02:58:25;;;;;;;15.48;5.45;;;;;;;17.49;100.00;97791.03;5091336;28;20028;-78
2021/07/20 03:00:54;;;;;;;5.80;4.47;;;;;;;17.45;100.00;97790.91;5092009;28;20032;-76
2021/07/20 03:03:19;;;;;;;8.80;4.70;;;;;;;17.38;100.00;97793.47;5091881;28;20052;-77
2021/07/20 03:05:47;;;;;;;15.45;5.45;;;;;;;17.45;100.00;97790.91;5090008;28;20063;-76
2021/07/20 03:08:15;;;;;;;10.15;5.03;;;;;;;17.34;100.00;97781.47;5091178;28;20012;-77
2021/07/20 03:10:44;;;;;;;8.77;5.15;;;;;;;17.32;100.00;97788.50;5090016;28;20027;-75
2021/07/20 03:13:12;;;;;;;12.60;4.32;;;;;;;17.23;100.00;97790.56;5091386;28;20020;-77
2021/07/20 03:15:38;;;;;;;7.88;4.95;;;;;;;17.17;100.00;97789.13;5091393;28;20036;-76
2021/07/20 03:18:07;;;;;;;11.60;4.70;;;;;;;17.09;100.00;97788.91;5090584;28;20146;-77
2021/07/20 03:20:37;;;;;;;17.08;6.25;;;;;;;17.10;100.00;97804.31;5089389;28;20020;-76
2021/07/20 03:23:04;;;;;;;10.88;5.00;;;;;;;17.46;100.00;97809.13;5089046;28;20089;-76
2021/07/20 03:25:30;;;;;;;7.35;4.80;;;;;;;17.51;100.00;97805.34;5091100;28;20016;-77
2021/07/20 03:27:58;;;;;;;8.63;4.72;;;;;;;17.55;100.00;97800.75;5095773;28;20020;-78
2021/07/20 03:30:26;;;;;;;11.98;4.40;;;;;;;17.51;100.00;97808.13;5092397;28;20050;-78
2021/07/20 03:32:52;;;;;;;9.82;4.72;;;;;;;17.51;100.00;97799.81;5089821;28;20039;-79
2021/07/20 03:35:18;;;;;;;8.40;4.70;;;;;;;17.44;100.00;97816.16;5090828;28;20446;-79
2021/07/20 03:37:44;;;;;;;7.68;5.25;;;;;;;17.43;100.00;97803.47;5089481;28;20097;-78
2021/07/20 03:40:11;;;;;;;13.48;4.90;;;;;;;17.49;100.00;97804.88;5091060;28;20073;-76
2021/07/20 03:42:39;;;;;;;11.48;5.47;;;;;;;17.46;100.00;97806.38;5090555;28;20024;-77
2021/07/20 03:45:06;;;;;;;8.70;4.20;;;;;;;17.37;100.00;97813.16;5090587;28;20034;-78
2021/07/20 03:47:33;;;;;;;7.55;3.83;;;;;;;17.28;100.00;97816.00;5089920;28;20059;-77
2021/07/20 03:49:59;;;;;;;7.78;4.10;;;;;;;17.41;100.00;97814.91;5090292;28;20019;-77
2021/07/20 03:52:26;;;;;;;8.82;5.65;;;;;;;17.47;100.00;97823.78;5085750;28;20027;-77
2021/07/20 03:54:51;;;;;;;24.05;5.45;;;;;;;17.23;100.00;97805.16;5089981;28;20526;-78
2021/07/20 03:57:20;;;;;;;17.58;5.30;;;;;;;17.14;100.00;97799.72;5089122;28;20040;-78
2021/07/20 03:59:48;;;;;;;8.05;4.88;;;;;;;17.34;100.00;97808.31;5089079;28;20115;-78
2021/07/20 04:02:15;;;;;;;6.70;5.07;;;;;;;17.55;100.00;97811.81;5090372;28;20059;-75
2021/07/20 04:04:43;;;;;;;17.42;6.47;;;;;;;17.46;100.00;97816.63;5089115;28;20046;-76
2021/07/20 04:07:13;;;;;;;13.23;5.65;;;;;;;17.29;100.00;97811.28;5089075;28;20013;-78
2021/07/20 04:09:40;;;;;;;8.52;4.18;;;;;;;17.56;100.00;97813.44;5090260;28;20111;-75
2021/07/20 04:12:07;;;;;;;7.88;5.25;;;;;;;17.50;100.00;97815.59;5090001;28;20066;-77
2021/07/20 04:14:33;;;;;;;6.47;4.55;;;;;;;17.53;100.00;97822.41;5088868;28;20024;-80
2021/07/20 04:16:59;;;;;;;5.53;4.25;;;;;;;17.55;100.00;97820.13;5089857;28;20024;-76
2021/07/20 04:19:25;;;;;;;11.65;4.90;;;;;;;17.62;100.00;97823.94;5087526;28;20082;-79
2021/07/20 04:21:50;;;;;;;9.95;4.95;;;;;;;17.53;100.00;97812.16;5089138;28;20030;-76
2021/07/20 04:24:16;;;;;;;11.27;5.30;;;;;;;17.51;100.00;97824.72;5083411;28;20028;-77
2021/07/20 04:26:43;;;;;;;5.93;4.70;;;;;;;17.46;100.00;97824.91;5083523;28;20435;-78
2021/07/20 04:29:09;;;;;;;10.55;5.68;;;;;;;17.76;100.00;97831.88;5089607;28;20117;-77
2021/07/20 04:31:40;;;;;;;4.93;4.05;;;;;;;18.27;100.00;97843.41;5077412;28;20024;-77
2021/07/20 04:34:10;;;;;;;11.73;5.88;;;;;;;18.41;98.35;97847.44;5087356;28;20436;-78
2021/07/20 04:36:39;;;;;;;7.70;4.60;;;;;;;18.65;96.17;97835.53;5087731;28;20485;-79
2021/07/20 04:39:04;;;;;;;11.23;4.45;;;;;;;18.86;94.72;97847.22;5088883;28;20040;-79
2021/07/20 04:41:31;;;;;;;15.60;4.70;;;;;;;19.03;93.48;97844.16;5087318;28;20062;-79
2021/07/20 04:43:56;;;;;;;8.05;3.92;;;;;;;19.11;92.92;97842.38;5088944;28;20074;-78
2021/07/20 04:46:22;;;;;;;10.95;4.47;;;;;;;19.17;91.57;97841.78;5087537;28;20111;-77
2021/07/20 04:48:48;;;;;;;13.15;4.13;;;;;;;18.49;94.86;97832.69;5088495;28;20017;-80
2021/07/20 04:51:14;;;;;;;13.88;4.88;;;;;;;18.22;97.72;97841.69;5089088;28;20024;-78
2021/07/20 04:53:40;;;;;;;12.77;4.72;;;;;;;18.00;98.74;97842.97;5087239;28;20047;-78
2021/07/20 04:56:06;;;;;;;10.95;5.03;;;;;;;18.08;98.75;97852.31;5087827;28;20046;-78
2021/07/20 04:58:33;;;;;;;7.53;4.57;;;;;;;18.14;97.85;97851.72;5088687;28;20405;-78
2021/07/20 05:00:59;;;;;;;14.52;4.65;;;;;;;17.96;98.66;97844.81;5086392;28;20421;-76
2021/07/20 05:03:26;;;;;;;10.25;4.97;;;;;;;17.98;98.16;97850.03;5087780;28;20031;-75
2021/07/20 05:05:54;;;;;;;14.27;4.50;;;;;;;18.39;96.45;97862.78;5088541;28;20024;-79
2021/07/20 05:08:21;;;;;;;11.77;4.68;;;;;;;18.74;93.72;97866.66;5088441;28;20020;-78
2021/07/20 05:10:48;;;;;;;7.03;4.47;;;;;;;18.83;92.19;97863.75;5092853;28;20124;-78
2021/07/20 05:13:18;;;;;;;19.75;5.03;;;;;;;18.88;91.76;97871.84;5091058;28;20119;-77
2021/07/20 05:15:56;;;;;;;16.52;5.15;;;;;;;19.12;91.50;97874.50;5092966;28;20055;-77
2021/07/20 05:18:22;;;;;;;8.65;5.05;;;;;;;19.44;89.38;97873.47;5090023;28;20032;-77
2021/07/20 05:20:50;;;;;;;7.47;4.28;;;;;;;19.63;88.18;97872.78;5092793;28;20082;-79
2021/07/20 05:23:17;;;;;;;10.82;5.35;;;;;;;19.65;87.70;97873.22;5092117;28;20131;-78
2021/07/20 05:25:47;;;;;;;7.78;4.22;;;;;;;19.83;86.71;97884.81;5094012;28;20024;-77
2021/07/20 05:28:14;;;;;;;9.80;4.72;;;;;;;19.90;86.07;97876.63;5092495;28;20031;-78
2021/07/20 05:30:41;;;;;;;8.55;4.22;;;;;;;19.76;86.39;97879.88;5092634;28;20504;-77
2021/07/20 05:33:08;;;;;;;8.68;4.88;;;;;;;19.37;88.47;97880.75;5093246;28;20040;-78
2021/07/20 05:35:34;;;;;;;11.63;4.97;;;;;;;19.51;87.26;97876.44;5093320;28;20040;-78
2021/07/20 05:38:00;;;;;;;13.93;4.93;;;;;;;19.80;85.94;97888.31;5094238;28;20065;-77
2021/07/20 05:40:26;;;;;;;19.20;5.38;;;;;;;20.41;82.75;97892.25;5094860;28;20028;-77
2021/07/20 05:42:52;;;;;;;14.68;5.10;;;;;;;20.63;81.37;97897.13;5093433;28;20035;-77
2021/07/20 05:45:18;;;;;;;8.48;4.03;;;;;;;20.77;80.54;97889.09;5099059;28;20094;-75
2021/07/20 05:47:49;;;;;;;12.65;5.15;;;;;;;20.33;82.12;97893.22;5096502;28;20448;-76
2021/07/20 05:50:19;;;;;;;8.80;4.55;;;;;;;20.54;81.70;97893.75;5093926;28;20103;-78
2021/07/20 05:52:47;;;;;;;8.70;4.93;;;;;;;20.58;81.81;97888.28;5093838;28;20056;-79
2021/07/20 05:55:15;;;;;;;13.05;5.45;;;;;;;20.03;83.65;97890.09;5093900;28;20031;-77
2021/07/20 05:57:45;;;;;;;7.25;4.88;;;;;;;19.64;86.18;97885.50;5093301;28;20024;-80
2021/07/20 06:00:12;;;;;;;6.25;4.43;;;;;;;20.52;82.79;97890.50;5094602;28;20035;-81
2021/07/20 06:02:39;;;;;;;8.15;4.35;;;;;;;20.82;79.95;97904.69;5093738;28;20408;-83
2021/07/20 06:05:07;;;;;;;10.40;4.85;;;;;;;20.73;79.92;97898.53;5091988;28;20524;-81
2021/07/20 06:07:35;;;;;;;8.75;4.47;;;;;;;21.17;77.48;97902.72;5093762;28;20060;-78
2021/07/20 06:10:01;;;;;;;5.72;4.70;;;;;;;21.02;77.94;97906.31;5093590;28;20024;-82
2021/07/20 06:12:28;;;;;;;9.07;5.20;;;;;;;21.21;76.90;97900.78;5093376;28;20115;-78
2021/07/20 06:14:55;;;;;;;13.82;5.05;;;;;;;21.36;76.16;97902.69;5094102;28;20028;-85
2021/07/20 06:17:23;;;;;;;6.72;4.18;;;;;;;21.92;73.65;97905.00;5092972;28;20101;-85
2021/07/20 06:19:50;;;;;;;15.80;5.97;;;;;;;21.77;73.52;97911.44;5093922;28;20024;-83
2021/07/20 06:22:18;;;;;;;5.93;4.38;;;;;;;21.57;74.52;97904.28;5094038;28;20080;-85
2021/07/20 06:24:46;;;;;;;11.63;4.25;;;;;;;21.86;73.31;97900.88;5090786;28;20560;-75
2021/07/20 06:27:13;;;;;;;11.60;4.00;;;;;;;22.19;72.36;97903.06;5091151;28;20028;-79
2021/07/20 06:29:42;;;;;;;8.63;4.85;;;;;;;22.42;70.69;97901.88;5090679;28;20016;-78
2021/07/20 06:32:09;;;;;;;8.40;4.85;;;;;;;22.34;71.61;97899.31;5091707;28;20039;-77
2021/07/20 06:34:36;;;;;;;14.48;5.25;;;;;;;22.02;72.91;97901.56;5090908;28;20093;-79
2021/07/20 06:37:03;;;;;;;13.90;5.53;;;;;;;21.55;74.97;97903.88;5091981;28;21585;-79
2021/07/20 06:39:29;;;;;;;10.38;5.35;;;;;;;21.40;76.09;97907.53;5093658;28;20028;-77
2021/07/20 06:41:56;;;;;;;12.05;4.90;;;;;;;21.85;74.57;97899.25;5089225;28;20034;-77
2021/07/20 06:44:22;;;;;;;8.02;4.70;;;;;;;21.78;74.08;97901.91;5091608;28;20489;-78
2021/07/20 06:46:50;;;;;;;7.07;4.38;;;;;;;22.12;72.83;97902.94;5090845;28;20028;-78
2021/07/20 06:49:17;;;;;;;7.60;4.72;;;;;;;22.25;71.64;97896.00;5087740;28;20027;-80
2021/07/20 06:51:43;;;;;;;11.52;5.15;;;;;;;22.41;72.24;97908.63;5089834;28;20024;-80
2021/07/20 06:54:08;;;;;;;15.60;6.10;;;;;;;22.85;69.17;97910.88;5092651;28;20043;-78
2021/07/20 06:56:45;;;;;;;12.77;6.03;;;;;;;22.56;70.04;97903.25;5092200;28;20476;-79
2021/07/20 06:59:13;;;;;;;14.68;5.75;;;;;;;22.22;71.07;97911.47;5092152;28;20032;-79
2021/07/20 07:01:40;;;;;;;12.73;6.25;;;;;;;22.30;71.33;97915.97;5091616;28;21096;-76
2021/07/20 07:04:25;;;;;;;14.85;5.10;;;;;;;22.52;70.18;97908.78;5090707;28;20028;-75
2021/07/20 07:06:55;;;;;;;11.77;4.72;;;;;;;22.65;69.46;97912.16;5090127;28;20418;-78
2021/07/20 07:09:23;;;;;;;9.10;5.30;;;;;;;22.93;68.40;97915.38;5089690;28;20063;-77
2021/07/20 07:11:51;;;;;;;11.75;4.53;;;;;;;23.19;67.36;97912.56;5089616;28;20016;-77
2021/07/20 07:14:17;;;;;;;9.18;5.15;;;;;;;23.54;66.33;97906.63;5088121;28;20031;-78
2021/07/20 07:16:46;;;;;;;8.63;4.00;;;;;;;23.41;65.97;97900.50;5089475;28;20024;-77
2021/07/20 07:19:14;;;;;;;10.85;5.80;;;;;;;22.60;68.75;97896.56;5090413;28;20024;-76
2021/07/20 07:21:44;;;;;;;12.85;5.65;;;;;;;22.96;67.88;97902.69;5088857;28;20024;-76
2021/07/20 07:24:14;;;;;;;8.68;5.00;;;;;;;23.39;66.45;97894.50;5089109;28;20028;-79
2021/07/20 07:26:41;;;;;;;9.23;4.43;;;;;;;23.67;64.21;97890.41;5090198;28;20032;-75
2021/07/20 07:29:12;;;;;;;9.65;5.38;;;;;;;23.97;62.62;97893.91;5089546;28;20053;-76
2021/07/20 07:31:38;;;;;;;8.43;4.68;;;;;;;23.95;62.63;97897.09;5088680;28;20476;-77
2021/07/20 07:34:04;;;;;;;16.33;6.00;;;;;;;23.84;60.56;97889.78;5090102;28;20799;-74
2021/07/20 07:36:32;;;;;;;10.25;4.70;;;;;;;24.03;60.06;97900.75;5089391;28;20039;-75
2021/07/20 07:39:02;;;;;;;9.02;3.88;;;;;;;24.22;59.02;97899.75;5090660;28;20020;-79
2021/07/20 07:41:29;;;;;;;9.32;4.03;;;;;;;24.06;60.12;97897.19;5090989;28;20032;-78
2021/07/20 07:43:56;;;;;;;6.85;4.22;;;;;;;24.37;59.41;97901.50;5092101;28;20038;-76
2021/07/20 07:46:22;;;;;;;13.75;4.20;;;;;;;24.45;58.21;97892.78;5090554;28;20036;-76
2021/07/20 07:48:49;;;;;;;7.18;4.07;;;;;;;24.50;58.49;97891.59;5088608;28;20020;-79
2021/07/20 07:51:14;;;;;;;7.03;4.20;;;;;;;24.50;57.99;97892.41;5087683;28;20050;-77
2021/07/20 07:53:41;;;;;;;9.25;4.47;;;;;;;24.84;56.01;97889.47;5086253;28;20539;-75
2021/07/20 07:56:07;;;;;;;9.52;4.38;;;;;;;25.37;55.66;97898.91;5087455;28;20028;-77
2021/07/20 07:58:33;;;;;;;9.27;4.53;;;;;;;25.05;55.42;97900.78;5085942;28;20028;-78
2021/07/20 08:01:00;;;;;;;8.80;3.42;;;;;;;25.60;54.39;97895.84;5085598;28;20078;-77
2021/07/20 08:03:30;;;;;;;10.27;5.68;;;;;;;25.65;53.36;97903.06;5089205;28;20028;-74
2021/07/20 08:06:03;;;;;;;7.88;4.13;;;;;;;25.86;52.99;97900.31;5087697;28;20052;-74
2021/07/20 08:08:31;;;;;;;8.93;4.13;;;;;;;25.84;53.95;97895.13;5088116;28;20020;-74
2021/07/20 08:10:57;;;;;;;7.95;3.88;;;;;;;26.12;52.15;97899.16;5087536;28;20389;-75
2021/07/20 08:13:24;;;;;;;8.30;4.18;;;;;;;25.66;54.44;97899.03;5087967;28;20027;-75
2021/07/20 08:15:51;;;;;;;10.30;4.40;;;;;;;25.44;54.14;97900.94;5087919;28;20114;-73
2021/07/20 08:18:23;;;;;;;10.85;5.45;;;;;;;25.41;54.58;97891.34;5087018;28;20020;-75
2021/07/20 08:20:52;;;;;;;11.80;4.60;;;;;;;25.64;54.97;97896.66;5087914;28;20382;-73
2021/07/20 08:23:19;;;;;;;10.07;3.58;;;;;;;26.57;51.97;97893.56;5087137;28;20035;-73
2021/07/20 08:25:48;;;;;;;5.70;3.78;;;;;;;27.48;49.11;97894.59;5088050;28;20030;-73
2021/07/20 08:28:32;;;;;;;13.38;4.35;;;;;;;28.02;47.63;97897.91;5087577;28;20039;-75
2021/07/20 08:31:02;;;;;;;9.88;4.03;;;;;;;28.52;46.37;97893.53;5086406;28;20119;-76
2021/07/20 08:33:31;;;;;;;9.57;4.95;;;;;;;29.34;43.89;97904.00;5087349;28;20036;-73
2021/07/20 08:36:01;;;;;;;8.07;4.40;;;;;;;29.76;41.68;97907.06;5086998;28;20159;-73
2021/07/20 08:38:27;;;;;;;4.28;3.85;;;;;;;31.12;39.13;97896.06;5085617;28;20484;-75
2021/07/20 08:40:58;;;;;;;9.52;3.97;;;;;;;31.51;38.19;97898.13;5087517;28;20032;-74
2021/07/20 08:43:42;;;;;;;5.82;4.05;;;;;;;30.49;39.23;97897.97;5085790;28;20020;-74
2021/07/20 08:46:20;;;;;;;9.15;4.45;;;;;;;29.53;41.36;97895.72;5084576;28;20488;-72
2021/07/20 08:48:48;;;;;;;12.35;4.30;;;;;;;30.83;38.57;97905.44;5085661;28;20020;-72
2021/07/20 08:51:24;;;;;;;11.70;4.15;;;;;;;31.12;38.44;97898.06;5086054;28;20032;-74
2021/07/20 08:53:57;;;;;;;12.38;4.25;;;;;;;30.51;40.21;97912.44;5085651;28;20484;-73
2021/07/20 08:56:27;;;;;;;7.47;4.03;;;;;;;28.53;44.30;97908.41;5085185;28;20072;-71
2021/07/20 08:59:02;;;;;;;8.73;4.32;;;;;;;29.76;41.71;97907.06;5087156;28;20146;-73
2021/07/20 09:01:49;;;;;;;;;;;;;;;30.23;40.65;97904.41;5085499;28;20115;-71
2021/07/20 09:04:21;;;;;;;9.77;3.72;;;;;;;31.08;38.98;97905.81;5085180;28;19919;-72
2021/07/20 09:07:10;;;;;;;6.80;3.92;;;;;;;31.03;38.88;97903.50;5088119;28;20384;-73
2021/07/20 09:09:40;;;;;;;9.20;3.88;;;;;;;31.19;39.05;97904.41;5087045;28;20036;-71
2021/07/20 09:12:21;;;;;;;5.57;3.80;;;;;;;31.51;38.21;97903.78;5084209;28;20150;-74
2021/07/20 09:14:57;;;;;;;4.88;3.15;;;;;;;30.70;40.05;97911.72;5085537;28;20107;-72
2021/07/20 09:17:32;;;;;;;6.15;3.30;;;;;;;30.39;40.35;97901.75;5086684;28;20411;-75
2021/07/20 09:20:07;;;;;;;7.82;4.13;;;;;;;30.88;39.78;97896.50;5086738;28;20028;-73
2021/07/20 09:22:47;;;;;;;5.95;3.88;;;;;;;31.98;37.06;97903.59;5085857;28;20077;-73
2021/07/20 09:25:27;;;;;;;5.75;3.28;;;;;;;30.76;38.94;97893.03;5087047;28;20169;-73
2021/07/20 09:28:08;;;;;;;7.57;3.72;;;;;;;32.04;36.49;97896.19;5087174;28;20055;-73
2021/07/20 09:30:38;;;;;;;7.43;3.33;;;;;;;33.40;34.36;97896.75;5067861;28;20080;-73
2021/07/20 09:33:20;;;;;;;7.35;3.78;;;;;;;31.80;36.28;97893.44;5078962;28;20469;-71
2021/07/20 09:35:51;;;;;;;6.28;3.08;;;;;;;33.16;34.87;97881.22;5085574;28;20046;-73
2021/07/20 09:38:28;;;;;;;8.85;3.13;;;;;;;30.58;37.90;97881.25;5088273;28;20073;-73
2021/07/20 09:41:18;;;;;;;5.15;3.13;;;;;;;28.88;41.54;97876.31;5085350;28;20039;-72
2021/07/20 09:44:02;;;;;;;5.57;3.53;;;;;;;27.62;44.94;97874.03;5084193;28;20480;-72
2021/07/20 09:46:54;;;;;;;5.75;3.45;;;;;;;27.72;45.79;97878.00;5084870;28;20128;-74
2021/07/20 09:49:38;;;;;;;6.75;4.20;;;;;;;28.48;44.27;97875.84;5087199;28;20044;-73
2021/07/20 09:52:24;;;;;;;5.43;2.92;;;;;;;30.85;39.00;97871.94;5085408;28;20028;-74
2021/07/20 09:55:08;;;;;;;3.47;2.63;;;;;;;31.59;35.91;97874.09;5086338;28;20039;-74
2021/07/20 09:57:54;;;;;;;10.43;3.35;;;;;;;32.52;34.00;97878.41;5091252;28;20059;-73
2021/07/20 10:00:42;;;;;;;5.25;3.25;;;;;;;32.21;35.14;97875.94;5090165;28;20038;-72
2021/07/20 10:03:19;;;;;;;11.02;3.83;;;;;;;32.66;34.40;97864.72;5089466;28;20066;-73
2021/07/20 10:05:56;;;;;;;6.20;3.47;;;;;;;34.75;31.27;97879.16;5089096;28;20024;-74
2021/07/20 10:08:31;;;;;;;6.88;3.22;;;;;;;34.93;30.86;97870.81;5089745;28;20028;-73
2021/07/20 10:11:11;;;;;;;5.70;2.75;;;;;;;33.34;33.17;97870.16;5091260;28;20020;-74
2021/07/20 10:13:45;;;;;;;3.88;2.78;;;;;;;32.52;33.93;97852.91;5090547;28;20110;-73
2021/07/20 10:16:21;;;;;;;5.07;3.28;;;;;;;32.76;33.63;97852.31;5090035;28;20063;-74
2021/07/20 10:18:57;;;;;;;7.00;3.85;;;;;;;34.21;31.84;97864.34;5094412;28;20066;-75
2021/07/20 10:21:29;;;;;;;5.80;2.47;;;;;;;34.00;32.02;97860.09;5096533;28;20488;-75
2021/07/20 10:23:59;;;;;;;6.30;3.08;;;;;;;33.75;32.54;97848.72;5090405;28;20059;-73
2021/07/20 10:26:38;;;;;;;7.38;3.58;;;;;;;31.83;35.77;97844.44;5088931;28;20020;-74
2021/07/20 10:29:11;;;;;;;9.40;3.35;;;;;;;31.82;36.17;97845.72;5092124;28;20039;-75
2021/07/20 10:31:49;;;;;;;4.30;2.60;;;;;;;32.85;33.36;97843.19;5091623;28;20030;-73
2021/07/20 10:34:23;;;;;;;5.55;2.97;;;;;;;33.13;33.57;97844.44;5091741;28;20035;-73
2021/07/20 10:37:02;;;;;;;9.93;2.90;;;;;;;31.73;36.33;97839.06;5091584;28;20063;-77
2021/07/20 10:39:42;;;;;;;8.15;3.70;;;;;;;31.28;36.78;97838.78;5088292;28;20532;-73
2021/07/20 10:42:12;;;;;;;5.68;3.78;;;;;;;29.89;39.03;97833.97;5092072;28;20038;-75
2021/07/20 10:45:05;;;;;;;9.07;3.78;;;;;;;28.88;41.26;97828.44;5091513;28;20099;-73
2021/07/20 10:47:40;;;;;;;6.85;3.95;;;;;;;29.13;40.97;97824.06;5090412;28;20028;-75
2021/07/20 10:50:09;;;;;;;11.82;3.10;;;;;;;29.33;41.23;97824.28;5091651;28;20024;-74
2021/07/20 10:52:58;;;;;;;6.65;3.53;;;;;;;28.52;42.65;97809.06;5091681;28;20384;-72
2021/07/20 10:55:46;;;;;;;7.22;4.18;;;;;;;28.95;42.19;97814.25;5090147;28;20032;-74
2021/07/20 10:58:20;;;;;;;6.78;3.47;;;;;;;28.86;42.67;97811.94;5070736;28;20113;-73
2021/07/20 11:00:59;;;;;;;4.60;3.38;;;;;;;28.27;44.40;97802.88;5090830;28;20036;-79
2021/07/20 11:03:31;;;;;;;11.45;4.78;;;;;;;27.89;44.35;97807.56;5090445;28;20031;-76
2021/07/20 11:05:58;;;;;;;6.32;3.15;;;;;;;27.46;45.47;97792.22;5090747;28;20153;-77
2021/07/20 11:08:25;;;;;;;9.23;3.92;;;;;;;27.58;44.96;97794.53;5089507;28;20024;-75
2021/07/20 11:10:54;;;;;;;6.18;3.58;;;;;;;28.31;43.66;97797.22;5090168;28;20062;-78
2021/07/20 11:13:29;;;;;;;4.30;3.38;;;;;;;28.56;42.39;97792.94;5092005;28;20102;-75
2021/07/20 11:15:59;;;;;;;7.80;3.80;;;;;;;28.81;41.82;97797.53;5089502;28;20024;-78
2021/07/20 11:18:29;;;;;;;9.50;3.30;;;;;;;29.44;41.04;97801.59;5091173;28;20056;-78
2021/07/20 11:20:59;;;;;;;7.85;3.70;;;;;;;29.72;40.48;97796.34;5089868;28;20438;-78
2021/07/20 11:23:25;;;;;;;10.07;3.92;;;;;;;28.97;41.40;97794.91;5085765;28;20029;-79
2021/07/20 11:25:51;;;;;;;8.15;3.33;;;;;;;29.07;41.24;97796.81;5071414;28;20039;-80
2021/07/20 11:28:17;;;;;;;4.75;2.63;;;;;;;29.22;40.98;97792.59;5089044;28;20039;-80
2021/07/20 11:30:46;;;;;;;7.68;3.03;;;;;;;29.85;39.94;97781.66;5088866;28;20544;-79
2021/07/20 11:33:16;;;;;;;14.85;3.25;;;;;;;30.09;39.33;97780.44;5088495;28;20404;-80
2021/07/20 11:35:45;;;;;;;5.57;3.25;;;;;;;30.12;39.45;97780.38;5090252;28;20135;-80
2021/07/20 11:38:13;;;;;;;5.13;2.80;;;;;;;29.91;39.40;97780.75;5090130;28;20031;-78
2021/07/20 11:40:58;;;;;;;6.55;3.75;;;;;;;29.20;40.86;97764.81;5091104;28;20024;-78
2021/07/20 11:43:32;;;;;;;5.28;3.70;;;;;;;28.37;41.79;97765.38;5092242;28;20118;-77
2021/07/20 11:46:05;;;;;;;5.28;3.70;;;;;;;29.15;40.37;97762.47;5091711;28;20024;-79
2021/07/20 11:48:40;;;;;;;5.07;3.33;;;;;;;29.41;40.31;97763.75;5090215;28;20031;-77